Terminal Aerodrome Forecast
Issued by NWS

Home | Current Version | Previous Version | Text Only | Print | Product List | Glossary On
Versions: 1 2 3 4 5 6 7 8 9 10 11 12
651
FTUS46 KLOX 121731
TAFLGB
TAF
KLGB 121731Z 1218/1318 VRB04KT P6SM BKN250
     FM122000 20006KT P6SM BKN250
     FM130000 28008KT P6SM BKN200
     FM130400 VRB03KT P6SM BKN250
     FM131300 VRB03KT 6SM HZ BKN250=

USA.gov is the U.S. government's official web portal to all federal, state and local government web resources and services.